Andrews Bridge, Pennsylvania
Current Conditions -  °F | °C
As of 9:35 AM on Friday 24 Oct 2014 (Local Time) from KMQS Reporting Station
Clear Clear  
Wind Chill: 14°   Ceiling: Unl
Heat Index: 14°   Visibility: 10mi
Dew Point:   Wind: 9mph
Humidity: 63%   Direction: 330°NNW
Pressure: 29.91"   Gusts: 17mph
Location:  39.9118°N, 76.0265°W
Report Text: KMQS 241335Z AUTO 33008G15KT 10SM CLR 14/07 A2991 RMK AO2
Loading
Personal Weather Stations






























Interactive Weather Map
Tropical Storm Tracking
New forecast layout! Learn more

10-Day Weather Forecast

Advertisements
Track Severe Weather on mobile